Terminal Aerodrome Forecast
Issued by NWS

Home | Current Version | Previous Version | Text Only | Print | Product List | Glossary On
Versions: 1 2 3 4 5 6 7 8 9 10 11 12 13 14 15
000
FTPQ31 PGUM 031752
TAFGUM
TAF

TAF
PKMJ 031752Z 0318/0418 06016KT P6SM VCSH FEW016 SCT040 BKN120
      TEMPO 0318/0322 -SHRA SCT014 BKN030=

USA.gov is the U.S. government's official web portal to all federal, state and local government web resources and services.